Aviation Digital Data Service (ADDS)

Output produced by METARs form (2321 UTC 23 March 2019)
found at http://www.aviationweather.gov/metar/data/
 
METAR text: ENDU 232320Z AUTO 04004KT 360V100 1500 -SN VV010 00/M00 Q0973 RMK WIND 1100FT 05004KT WIND 2200FT 10009G22KT
Conditions at: ENDU (BARDUFOSS (CIV/M, NO) observed 2320 UTC 23 March 2019
Temperature: 0.0°C (32°F)
Dewpoint: 0.0°C (32°F) [RH = 100%]
Pressure (altimeter): 28.73 inches Hg (973.0 mb)
Winds: from the NE (40 degrees) at 5 MPH (4 knots; 2.1 m/s)
Visibility: 0.93 miles (1.50 km)
Ceiling: indefinite ceiling with vertical visibility of 1000 feet AGL
Clouds: obscured sky
Weather: -SN  (light snow)

METAR text: ENDU 232250Z AUTO 28004KT 5000 -SN VV014 01/M01 Q0973 RMK WIND 1100FT 04003KT WIND 2200FT 10011KT
Conditions at: ENDU (BARDUFOSS (CIV/M, NO) observed 2250 UTC 23 March 2019
Temperature: 1.0°C (34°F)
Dewpoint: -1.0°C (30°F) [RH = 86%]
Pressure (altimeter): 28.73 inches Hg (973.0 mb)
Winds: from the W (280 degrees) at 5 MPH (4 knots; 2.1 m/s)
Visibility: 3 miles ( 5 km)
Ceiling: indefinite ceiling with vertical visibility of 1400 feet AGL
Clouds: obscured sky
Weather: -SN  (light snow)

METAR text: ENDU 232220Z AUTO VRB03KT 9999 -RA ///027/// 02/M01 Q0973 RMK WIND 1100FT 04003KT WIND 2200FT 11011KT
Conditions at: ENDU (BARDUFOSS (CIV/M, NO) observed 2220 UTC 23 March 2019
Temperature: 2.0°C (36°F)
Dewpoint: -1.0°C (30°F) [RH = 80%]
Pressure (altimeter): 28.73 inches Hg (973.0 mb)
Winds: variable direction winds at 3 MPH (3 knots; 1.5 m/s)
Visibility: 6 or more miles (10+ km)
Ceiling: unknown
Clouds: missing
Weather: -RA  (light rain)

METAR text: ENDU 232150Z AUTO 08005KT 9999 -RASN FEW011/// OVC034/// 03/M04 Q0972 RMK WIND 1100FT 17004KT WIND 2200FT 15012KT
Conditions at: ENDU (BARDUFOSS (CIV/M, NO) observed 2150 UTC 23 March 2019
Temperature: 3.0°C (37°F)
Dewpoint: -4.0°C (25°F) [RH = 60%]
Pressure (altimeter): 28.70 inches Hg (972.0 mb)
Winds: from the E (80 degrees) at 6 MPH (5 knots; 2.6 m/s)
Visibility: 6 or more miles (10+ km)
Ceiling: 3400 feet AGL
Clouds: few clouds at 1100 feet AGL
overcast cloud deck at 3400 feet AGL
Weather: -RA -SN  (light rain, light snow)

METAR text: ENDU 232120Z AUTO VRB02KT 9999 OVC039/// 03/M05 Q0972 RMK WIND 1100FT 20007KT WIND 2200FT 17010KT
Conditions at: ENDU (BARDUFOSS (CIV/M, NO) observed 2120 UTC 23 March 2019
Temperature: 3.0°C (37°F)
Dewpoint: -5.0°C (23°F) [RH = 56%]
Pressure (altimeter): 28.70 inches Hg (972.0 mb)
Winds: variable direction winds at 2 MPH (2 knots; 1.0 m/s)
Visibility: 6 or more miles (10+ km)
Ceiling: 3900 feet AGL
Clouds: overcast cloud deck at 3900 feet AGL
Weather: no significant weather observed at this time

METAR text: ENDU 232050Z AUTO VRB01KT 9999 OVC049/// 03/M05 Q0972 RMK WIND 1100FT 18007KT WIND 2200FT 15017KT
Conditions at: ENDU (BARDUFOSS (CIV/M, NO) observed 2050 UTC 23 March 2019
Temperature: 3.0°C (37°F)
Dewpoint: -5.0°C (23°F) [RH = 56%]
Pressure (altimeter): 28.70 inches Hg (972.0 mb)
Winds: variable direction winds at 1 MPH (1 knots; 0.5 m/s)
Visibility: 6 or more miles (10+ km)
Ceiling: 4900 feet AGL
Clouds: overcast cloud deck at 4900 feet AGL
Weather: no significant weather observed at this time

METAR text: ENDU 232020Z AUTO 12006KT 090V180 9999 OVC055/// 04/M05 Q0972 RMK WIND 1100FT 34006KT WIND 2200FT 15019KT
Conditions at: ENDU (BARDUFOSS (CIV/M, NO) observed 2020 UTC 23 March 2019
Temperature: 4.0°C (39°F)
Dewpoint: -5.0°C (23°F) [RH = 52%]
Pressure (altimeter): 28.70 inches Hg (972.0 mb)
Winds: from the ESE (120 degrees) at 7 MPH (6 knots; 3.1 m/s)
Visibility: 6 or more miles (10+ km)
Ceiling: 5500 feet AGL
Clouds: overcast cloud deck at 5500 feet AGL
Weather: no significant weather observed at this time

METAR text: ENDU 231950Z AUTO VRB05KT 9999 OVC057/// 03/M05 Q0972 RMK WIND 1100FT VRB04KT WIND 2200FT 15017KT
Conditions at: ENDU (BARDUFOSS (CIV/M, NO) observed 1950 UTC 23 March 2019
Temperature: 3.0°C (37°F)
Dewpoint: -5.0°C (23°F) [RH = 56%]
Pressure (altimeter): 28.70 inches Hg (972.0 mb)
Winds: variable direction winds at 6 MPH (5 knots; 2.6 m/s)
Visibility: 6 or more miles (10+ km)
Ceiling: 5700 feet AGL
Clouds: overcast cloud deck at 5700 feet AGL
Weather: no significant weather observed at this time

METAR text: ENDU 231920Z AUTO 09009KT 070V130 9999 SCT059/// BKN086/// BKN110/// 03/M05 Q0973 RMK WIND 1100FT 15008KT WIND 2200FT 15013KT
Conditions at: ENDU (BARDUFOSS (CIV/M, NO) observed 1920 UTC 23 March 2019
Temperature: 3.0°C (37°F)
Dewpoint: -5.0°C (23°F) [RH = 56%]
Pressure (altimeter): 28.73 inches Hg (973.0 mb)
Winds: from the E (90 degrees) at 10 MPH (9 knots; 4.6 m/s)
Visibility: 6 or more miles (10+ km)
Ceiling: 8600 feet AGL
Clouds: scattered clouds at 5900 feet AGL
broken clouds at 8600 feet AGL
broken clouds at 11000 feet AGL
Weather: no significant weather observed at this time

METAR text: ENDU 231850Z AUTO 00000KT 9999 OVC130/// 03/M06 Q0973 RMK WIND 1100FT 18011KT WIND 2200FT 16017KT
Conditions at: ENDU (BARDUFOSS (CIV/M, NO) observed 1850 UTC 23 March 2019
Temperature: 3.0°C (37°F)
Dewpoint: -6.0°C (21°F) [RH = 52%]
Pressure (altimeter): 28.73 inches Hg (973.0 mb)
Winds: calm
Visibility: 6 or more miles (10+ km)
Ceiling: 13000 feet AGL
Clouds: overcast cloud deck at 13000 feet AGL
Weather: no significant weather observed at this time

METAR text: ENDU 231820Z AUTO VRB04KT 9999 BKN120/// 02/M05 Q0974 RMK WIND 1100FT 18013KT WIND 2200FT 16016KT
Conditions at: ENDU (BARDUFOSS (CIV/M, NO) observed 1820 UTC 23 March 2019
Temperature: 2.0°C (36°F)
Dewpoint: -5.0°C (23°F) [RH = 60%]
Pressure (altimeter): 28.76 inches Hg (974.0 mb)
Winds: variable direction winds at 5 MPH (4 knots; 2.1 m/s)
Visibility: 6 or more miles (10+ km)
Ceiling: 12000 feet AGL
Clouds: broken clouds at 12000 feet AGL
Weather: no significant weather observed at this time

METAR text: ENDU 231750Z AUTO 15006KT 100V250 9999 FEW062/// 04/M06 Q0975 RMK WIND 1100FT 17016KT WIND 2200FT 17019KT
Conditions at: ENDU (BARDUFOSS (CIV/M, NO) observed 1750 UTC 23 March 2019
Temperature: 4.0°C (39°F)
Dewpoint: -6.0°C (21°F) [RH = 48%]
Pressure (altimeter): 28.79 inches Hg (975.0 mb)
Winds: from the SSE (150 degrees) at 7 MPH (6 knots; 3.1 m/s)
Visibility: 6 or more miles (10+ km)
Ceiling: at least 12,000 feet AGL
Clouds: few clouds at 6200 feet AGL
Weather: no significant weather observed at this time

METAR text: ENDU 231720Z AUTO 16006KT 120V200 9999 FEW059/// BKN074/// 04/M06 Q0976 RMK WIND 1100FT 18015KT WIND 2200FT 18017KT
Conditions at: ENDU (BARDUFOSS (CIV/M, NO) observed 1720 UTC 23 March 2019
Temperature: 4.0°C (39°F)
Dewpoint: -6.0°C (21°F) [RH = 48%]
Pressure (altimeter): 28.82 inches Hg (976.0 mb)
Winds: from the SSE (160 degrees) at 7 MPH (6 knots; 3.1 m/s)
Visibility: 6 or more miles (10+ km)
Ceiling: 7400 feet AGL
Clouds: few clouds at 5900 feet AGL
broken clouds at 7400 feet AGL
Weather: no significant weather observed at this time

METAR text: ENDU 231650Z AUTO 16004KT 100V220 9999 SCT061/// OVC072/// 04/M06 Q0976 RMK WIND 1100FT 17009KT WIND 2200FT 18021KT
Conditions at: ENDU (BARDUFOSS (CIV/M, NO) observed 1650 UTC 23 March 2019
Temperature: 4.0°C (39°F)
Dewpoint: -6.0°C (21°F) [RH = 48%]
Pressure (altimeter): 28.82 inches Hg (976.0 mb)
Winds: from the SSE (160 degrees) at 5 MPH (4 knots; 2.1 m/s)
Visibility: 6 or more miles (10+ km)
Ceiling: 7200 feet AGL
Clouds: scattered clouds at 6100 feet AGL
overcast cloud deck at 7200 feet AGL
Weather: no significant weather observed at this time

METAR text: ENDU 231620Z AUTO 16004KT 120V250 9999 FEW055/// SCT098/// 04/M06 Q0977 RMK WIND 1100FT 19013KT WIND 2200FT 19024KT
Conditions at: ENDU (BARDUFOSS (CIV/M, NO) observed 1620 UTC 23 March 2019
Temperature: 4.0°C (39°F)
Dewpoint: -6.0°C (21°F) [RH = 48%]
Pressure (altimeter): 28.85 inches Hg (977.0 mb)
Winds: from the SSE (160 degrees) at 5 MPH (4 knots; 2.1 m/s)
Visibility: 6 or more miles (10+ km)
Ceiling: at least 12,000 feet AGL
Clouds: few clouds at 5500 feet AGL
scattered clouds at 9800 feet AGL
Weather: no significant weather observed at this time

METAR text: ENDU 231550Z AUTO 22006KT 180V280 9999 FEW064/// 04/M06 Q0977 RMK WIND 1100FT 19019KT WIND 2200FT 19022KT
Conditions at: ENDU (BARDUFOSS (CIV/M, NO) observed 1550 UTC 23 March 2019
Temperature: 4.0°C (39°F)
Dewpoint: -6.0°C (21°F) [RH = 48%]
Pressure (altimeter): 28.85 inches Hg (977.0 mb)
Winds: from the SW (220 degrees) at 7 MPH (6 knots; 3.1 m/s)
Visibility: 6 or more miles (10+ km)
Ceiling: at least 12,000 feet AGL
Clouds: few clouds at 6400 feet AGL
Weather: no significant weather observed at this time

METAR text: ENDU 231520Z AUTO VRB02KT 9999 FEW061/// SCT150/// 05/M06 Q0978 RMK WIND 1100FT 18016KT WIND 2200FT 18017KT
Conditions at: ENDU (BARDUFOSS (CIV/M, NO) observed 1520 UTC 23 March 2019
Temperature: 5.0°C (41°F)
Dewpoint: -6.0°C (21°F) [RH = 45%]
Pressure (altimeter): 28.88 inches Hg (978.0 mb)
Winds: variable direction winds at 2 MPH (2 knots; 1.0 m/s)
Visibility: 6 or more miles (10+ km)
Ceiling: at least 12,000 feet AGL
Clouds: few clouds at 6100 feet AGL
scattered clouds at 15000 feet AGL
Weather: no significant weather observed at this time

METAR text: ENDU 231450Z VRB01KT 9999 FEW030 BKN060 04/M04 Q0978 RMK WIND 1100FT 16008KT WIND 2200FT 19018KT
Conditions at: ENDU (BARDUFOSS (CIV/M, NO) observed 1450 UTC 23 March 2019
Temperature: 4.0°C (39°F)
Dewpoint: -4.0°C (25°F) [RH = 56%]
Pressure (altimeter): 28.88 inches Hg (978.0 mb)
Winds: variable direction winds at 1 MPH (1 knots; 0.5 m/s)
Visibility: 6 or more miles (10+ km)
Ceiling: 6000 feet AGL
Clouds: few clouds at 3000 feet AGL
broken clouds at 6000 feet AGL
Weather: no significant weather observed at this time

METAR text: ENDU 231420Z 15005KT 110V190 9999 FEW030 BKN060 04/M04 Q0979 RMK WIND 1100FT 35003KT WIND 2200FT 18018KT
Conditions at: ENDU (BARDUFOSS (CIV/M, NO) observed 1420 UTC 23 March 2019
Temperature: 4.0°C (39°F)
Dewpoint: -4.0°C (25°F) [RH = 56%]
Pressure (altimeter): 28.91 inches Hg (979.0 mb)
Winds: from the SSE (150 degrees) at 6 MPH (5 knots; 2.6 m/s)
Visibility: 6 or more miles (10+ km)
Ceiling: 6000 feet AGL
Clouds: few clouds at 3000 feet AGL
broken clouds at 6000 feet AGL
Weather: no significant weather observed at this time

METAR text: ENDU 231350Z VRB02KT 9999 FEW030 BKN060 04/M03 Q0980 RMK WIND 1100FT 18014KT WIND 2200FT 20020KT
Conditions at: ENDU (BARDUFOSS (CIV/M, NO) observed 1350 UTC 23 March 2019
Temperature: 4.0°C (39°F)
Dewpoint: -3.0°C (27°F) [RH = 60%]
Pressure (altimeter): 28.94 inches Hg (980.0 mb)
Winds: variable direction winds at 2 MPH (2 knots; 1.0 m/s)
Visibility: 6 or more miles (10+ km)
Ceiling: 6000 feet AGL
Clouds: few clouds at 3000 feet AGL
broken clouds at 6000 feet AGL
Weather: no significant weather observed at this time

METAR text: ENDU 231320Z 21006KT 160V270 9999 GS FEW030CB SCT060 05/M03 Q0981 RMK WIND 1100FT 20027KT WIND 2200FT 21032KT
Conditions at: ENDU (BARDUFOSS (CIV/M, NO) observed 1320 UTC 23 March 2019
Temperature: 5.0°C (41°F)
Dewpoint: -3.0°C (27°F) [RH = 56%]
Pressure (altimeter): 28.97 inches Hg (981.0 mb)
Winds: from the SSW (210 degrees) at 7 MPH (6 knots; 3.1 m/s)
Visibility: 6 or more miles (10+ km)
Ceiling: at least 12,000 feet AGL
Clouds: few clouds at 3000 feet AGL
scattered clouds at 6000 feet AGL
Weather: GS  (small hail or graupel)

METAR text: ENDU 231250Z 19009KT 150V250 9999 VCSH FEW030 06/M05 Q0980 TEMPO 21015G25KT RMK WIND 1100FT 19020KT WIND 2200FT 21019KT
Conditions at: ENDU (BARDUFOSS (CIV/M, NO) observed 1250 UTC 23 March 2019
Temperature: 6.0°C (43°F)
Dewpoint: -5.0°C (23°F) [RH = 45%]
Pressure (altimeter): 28.94 inches Hg (980.0 mb)
Winds: from the S (190 degrees) at 10 MPH (9 knots; 4.6 m/s)
Visibility: 6 or more miles (10+ km)
Ceiling: at least 12,000 feet AGL
Clouds: few clouds at 3000 feet AGL
Weather: VCSH  (showers in vicinity)

METAR text: ENDU 231220Z 21012KT 160V230 9999 FEW030 SCT060 06/M06 Q0980 TEMPO 21015G25KT RMK WIND 1100FT 19016KT WIND 2200FT 21030KT
Conditions at: ENDU (BARDUFOSS (CIV/M, NO) observed 1220 UTC 23 March 2019
Temperature: 6.0°C (43°F)
Dewpoint: -6.0°C (21°F) [RH = 42%]
Pressure (altimeter): 28.94 inches Hg (980.0 mb)
Winds: from the SSW (210 degrees) at 14 MPH (12 knots; 6.2 m/s)
Visibility: 6 or more miles (10+ km)
Ceiling: at least 12,000 feet AGL
Clouds: few clouds at 3000 feet AGL
scattered clouds at 6000 feet AGL
Weather: no significant weather observed at this time

METAR text: ENDU 231150Z 22008KT 160V270 9999 FEW030 SCT060 06/M04 Q0981 TEMPO 21015G25KT RMK WIND 1100FT 20021G32KT WIND 2200FT 22025KT
Conditions at: ENDU (BARDUFOSS (CIV/M, NO) observed 1150 UTC 23 March 2019
Temperature: 6.0°C (43°F)
Dewpoint: -4.0°C (25°F) [RH = 49%]
Pressure (altimeter): 28.97 inches Hg (981.0 mb)
Winds: from the SW (220 degrees) at 9 MPH (8 knots; 4.1 m/s)
Visibility: 6 or more miles (10+ km)
Ceiling: at least 12,000 feet AGL
Clouds: few clouds at 3000 feet AGL
scattered clouds at 6000 feet AGL
Weather: no significant weather observed at this time

METAR text: ENDU 231120Z 22009G19KT 150V270 9999 FEW030 SCT060 06/M04 Q0981 NOSIG RMK WIND 1100FT 20024KT WIND 2200FT 22025KT
Conditions at: ENDU (BARDUFOSS (CIV/M, NO) observed 1120 UTC 23 March 2019
Temperature: 6.0°C (43°F)
Dewpoint: -4.0°C (25°F) [RH = 49%]
Pressure (altimeter): 28.97 inches Hg (981.0 mb)
Winds: from the SW (220 degrees) at 10 MPH (9 knots; 4.6 m/s)
gusting to 22 MPH (19 knots; 9.8 m/s)
Visibility: 6 or more miles (10+ km)
Ceiling: at least 12,000 feet AGL
Clouds: few clouds at 3000 feet AGL
scattered clouds at 6000 feet AGL
Weather: no significant weather observed at this time

METAR text: ENDU 231050Z 23009KT 180V280 9999 FEW030CB BKN060 06/M03 Q0982 TEMPO 21015G25KT RMK WIND 1100FT 20021KT WIND 2200FT 21024KT
Conditions at: ENDU (BARDUFOSS (CIV/M, NO) observed 1050 UTC 23 March 2019
Temperature: 6.0°C (43°F)
Dewpoint: -3.0°C (27°F) [RH = 52%]
Pressure (altimeter): 29.00 inches Hg (982.0 mb)
Winds: from the SW (230 degrees) at 10 MPH (9 knots; 4.6 m/s)
Visibility: 6 or more miles (10+ km)
Ceiling: 6000 feet AGL
Clouds: few clouds at 3000 feet AGL
broken clouds at 6000 feet AGL
Weather: no significant weather observed at this time

METAR text: ENDU 231020Z VRB06KT 9999 FEW030CB BKN060 07/M04 Q0982 TEMPO 21012KT RMK WIND 1100FT 20016G26KT WIND 2200FT 21027KT
Conditions at: ENDU (BARDUFOSS (CIV/M, NO) observed 1020 UTC 23 March 2019
Temperature: 7.0°C (45°F)
Dewpoint: -4.0°C (25°F) [RH = 45%]
Pressure (altimeter): 29.00 inches Hg (982.0 mb)
Winds: variable direction winds at 7 MPH (6 knots; 3.1 m/s)
Visibility: 6 or more miles (10+ km)
Ceiling: 6000 feet AGL
Clouds: few clouds at 3000 feet AGL
broken clouds at 6000 feet AGL
Weather: no significant weather observed at this time

METAR text: ENDU 230950Z 21005G17KT 130V300 9999 FEW030CB SCT060 06/M03 Q0983 TEMPO 21015G25KT RMK WIND 1100FT 20013G24KT WIND 2200FT 20021KT
Conditions at: ENDU (BARDUFOSS (CIV/M, NO) observed 0950 UTC 23 March 2019
Temperature: 6.0°C (43°F)
Dewpoint: -3.0°C (27°F) [RH = 52%]
Pressure (altimeter): 29.03 inches Hg (983.0 mb)
Winds: from the SSW (210 degrees) at 6 MPH (5 knots; 2.6 m/s)
gusting to 20 MPH (17 knots; 8.7 m/s)
Visibility: 6 or more miles (10+ km)
Ceiling: at least 12,000 feet AGL
Clouds: few clouds at 3000 feet AGL
scattered clouds at 6000 feet AGL
Weather: no significant weather observed at this time

METAR text: ENDU 230920Z VRB05KT 9999 FEW030 SCT060 06/M02 Q0983 TEMPO 21015G25KT RMK WIND 1100FT 20020G31KT WIND 2200FT 23020KT
Conditions at: ENDU (BARDUFOSS (CIV/M, NO) observed 0920 UTC 23 March 2019
Temperature: 6.0°C (43°F)
Dewpoint: -2.0°C (28°F) [RH = 56%]
Pressure (altimeter): 29.03 inches Hg (983.0 mb)
Winds: variable direction winds at 6 MPH (5 knots; 2.6 m/s)
Visibility: 6 or more miles (10+ km)
Ceiling: at least 12,000 feet AGL
Clouds: few clouds at 3000 feet AGL
scattered clouds at 6000 feet AGL
Weather: no significant weather observed at this time

METAR text: ENDU 230850Z 23015G27KT 200V270 9999 -SHRA FEW030 SCT040 BKN140 05/M03 Q0983 TEMPO 21020G30KT RMK WIND 1100FT 20030KT WIND 2200FT 22027KT
Conditions at: ENDU (BARDUFOSS (CIV/M, NO) observed 0850 UTC 23 March 2019
Temperature: 5.0°C (41°F)
Dewpoint: -3.0°C (27°F) [RH = 56%]
Pressure (altimeter): 29.03 inches Hg (983.0 mb)
Winds: from the SW (230 degrees) at 17 MPH (15 knots; 7.7 m/s)
gusting to 31 MPH (27 knots; 13.9 m/s)
Visibility: 6 or more miles (10+ km)
Ceiling: 14000 feet AGL
Clouds: few clouds at 3000 feet AGL
scattered clouds at 4000 feet AGL
broken clouds at 14000 feet AGL
Weather: -SHRA  (light rain showers)

METAR text: ENDU 230820Z 20012KT 160V230 9999 FEW030 SCT140 06/M05 Q0983 TEMPO 21015G25KT RMK WIND 1100FT 19018KT WIND 2200FT 21017KT
Conditions at: ENDU (BARDUFOSS (CIV/M, NO) observed 0820 UTC 23 March 2019
Temperature: 6.0°C (43°F)
Dewpoint: -5.0°C (23°F) [RH = 45%]
Pressure (altimeter): 29.03 inches Hg (983.0 mb)
Winds: from the SSW (200 degrees) at 14 MPH (12 knots; 6.2 m/s)
Visibility: 6 or more miles (10+ km)
Ceiling: at least 12,000 feet AGL
Clouds: few clouds at 3000 feet AGL
scattered clouds at 14000 feet AGL
Weather: no significant weather observed at this time

METAR text: ENDU 230750Z 19010KT 160V230 9999 FEW030 05/M03 Q0983 TEMPO 21015G25KT RMK WIND 1100FT 18023KT WIND 2200FT 20019KT
Conditions at: ENDU (BARDUFOSS (CIV/M, NO) observed 0750 UTC 23 March 2019
Temperature: 5.0°C (41°F)
Dewpoint: -3.0°C (27°F) [RH = 56%]
Pressure (altimeter): 29.03 inches Hg (983.0 mb)
Winds: from the S (190 degrees) at 12 MPH (10 knots; 5.1 m/s)
Visibility: 6 or more miles (10+ km)
Ceiling: at least 12,000 feet AGL
Clouds: few clouds at 3000 feet AGL
Weather: no significant weather observed at this time

METAR text: ENDU 230720Z 21014KT 170V240 9999 FEW030 05/M02 Q0983 TEMPO 21020G30KT RMK WIND 1100FT 20031G42KT WIND 2200FT 21033KT
Conditions at: ENDU (BARDUFOSS (CIV/M, NO) observed 0720 UTC 23 March 2019
Temperature: 5.0°C (41°F)
Dewpoint: -2.0°C (28°F) [RH = 60%]
Pressure (altimeter): 29.03 inches Hg (983.0 mb)
Winds: from the SSW (210 degrees) at 16 MPH (14 knots; 7.2 m/s)
Visibility: 6 or more miles (10+ km)
Ceiling: at least 12,000 feet AGL
Clouds: few clouds at 3000 feet AGL
Weather: no significant weather observed at this time

METAR text: ENDU 230650Z VRB02KT 9999 FEW030 03/M02 Q0983 BECMG 21010KT RMK WIND 1100FT 20023G36KT WIND 2200FT 21025G37KT
Conditions at: ENDU (BARDUFOSS (CIV/M, NO) observed 0650 UTC 23 March 2019
Temperature: 3.0°C (37°F)
Dewpoint: -2.0°C (28°F) [RH = 70%]
Pressure (altimeter): 29.03 inches Hg (983.0 mb)
Winds: variable direction winds at 2 MPH (2 knots; 1.0 m/s)
Visibility: 6 or more miles (10+ km)
Ceiling: at least 12,000 feet AGL
Clouds: few clouds at 3000 feet AGL
Weather: no significant weather observed at this time

METAR text: ENDU 230620Z 08007KT 9999 FEW030 03/M02 Q0984 BECMG 21010KT RMK WIND 1100FT 19024G38KT WIND 2200FT 19014KT
Conditions at: ENDU (BARDUFOSS (CIV/M, NO) observed 0620 UTC 23 March 2019
Temperature: 3.0°C (37°F)
Dewpoint: -2.0°C (28°F) [RH = 70%]
Pressure (altimeter): 29.06 inches Hg (984.0 mb)
Winds: from the E (80 degrees) at 8 MPH (7 knots; 3.6 m/s)
Visibility: 6 or more miles (10+ km)
Ceiling: at least 12,000 feet AGL
Clouds: few clouds at 3000 feet AGL
Weather: no significant weather observed at this time

METAR text: ENDU 230550Z 14006KT 9999 FEW030 04/M01 Q0984 BECMG 21010KT RMK WIND 1100FT 19020KT WIND 2200FT 19017KT
Conditions at: ENDU (BARDUFOSS (CIV/M, NO) observed 0550 UTC 23 March 2019
Temperature: 4.0°C (39°F)
Dewpoint: -1.0°C (30°F) [RH = 70%]
Pressure (altimeter): 29.06 inches Hg (984.0 mb)
Winds: from the SE (140 degrees) at 7 MPH (6 knots; 3.1 m/s)
Visibility: 6 or more miles (10+ km)
Ceiling: at least 12,000 feet AGL
Clouds: few clouds at 3000 feet AGL
Weather: no significant weather observed at this time

METAR text: ENDU 230520Z 17005KT 140V200 9999 FEW030 04/M00 Q0985 RMK WIND 1100FT 19021KT WIND 2200FT 18012KT
Conditions at: ENDU (BARDUFOSS (CIV/M, NO) observed 0520 UTC 23 March 2019
Temperature: 4.0°C (39°F)
Dewpoint: 0.0°C (32°F) [RH = 75%]
Pressure (altimeter): 29.08 inches Hg (985.0 mb)
Winds: from the S (170 degrees) at 6 MPH (5 knots; 2.6 m/s)
Visibility: 6 or more miles (10+ km)
Ceiling: at least 12,000 feet AGL
Clouds: few clouds at 3000 feet AGL
Weather: no significant weather observed at this time

METAR text: ENDU 230450Z AUTO 19004KT 140V240 9999 FEW043/// 04/M00 Q0985 RMK WIND 1100FT 19022KT WIND 2200FT 20023KT
Conditions at: ENDU (BARDUFOSS (CIV/M, NO) observed 0450 UTC 23 March 2019
Temperature: 4.0°C (39°F)
Dewpoint: 0.0°C (32°F) [RH = 75%]
Pressure (altimeter): 29.08 inches Hg (985.0 mb)
Winds: from the S (190 degrees) at 5 MPH (4 knots; 2.1 m/s)
Visibility: 6 or more miles (10+ km)
Ceiling: at least 12,000 feet AGL
Clouds: few clouds at 4300 feet AGL
Weather: no significant weather observed at this time

METAR text: ENDU 230420Z AUTO 18007KT 140V220 9999 NCD 04/M00 Q0986 RMK WIND 1100FT 19025KT WIND 2200FT 21025KT
Conditions at: ENDU (BARDUFOSS (CIV/M, NO) observed 0420 UTC 23 March 2019
Temperature: 4.0°C (39°F)
Dewpoint: 0.0°C (32°F) [RH = 75%]
Pressure (altimeter): 29.11 inches Hg (986.0 mb)
Winds: from the S (180 degrees) at 8 MPH (7 knots; 3.6 m/s)
Visibility: 6 or more miles (10+ km)
Ceiling: at least 12,000 feet AGL
Clouds: sky clear below 12,000 feet AGL
Weather: no significant weather observed at this time

METAR text: ENDU 230350Z AUTO 19003KT 140V230 9999 FEW026/// SCT062/// 04/00 Q0987 RMK WIND 1100FT 20019KT WIND 2200FT 21030KT
Conditions at: ENDU (BARDUFOSS (CIV/M, NO) observed 0350 UTC 23 March 2019
Temperature: 4.0°C (39°F)
Dewpoint: 0.0°C (32°F) [RH = 75%]
Pressure (altimeter): 29.14 inches Hg (987.0 mb)
Winds: from the S (190 degrees) at 3 MPH (3 knots; 1.5 m/s)
Visibility: 6 or more miles (10+ km)
Ceiling: at least 12,000 feet AGL
Clouds: few clouds at 2600 feet AGL
scattered clouds at 6200 feet AGL
Weather: no significant weather observed at this time

METAR text: ENDU 230320Z AUTO 19005KT 140V240 9999 -DZ FEW010/// SCT051/// 04/00 Q0987 RMK WIND 1100FT 20022KT WIND 2200FT 21021KT
Conditions at: ENDU (BARDUFOSS (CIV/M, NO) observed 0320 UTC 23 March 2019
Temperature: 4.0°C (39°F)
Dewpoint: 0.0°C (32°F) [RH = 75%]
Pressure (altimeter): 29.14 inches Hg (987.0 mb)
Winds: from the S (190 degrees) at 6 MPH (5 knots; 2.6 m/s)
Visibility: 6 or more miles (10+ km)
Ceiling: at least 12,000 feet AGL
Clouds: few clouds at 1000 feet AGL
scattered clouds at 5100 feet AGL
Weather: -DZ  (light drizzle)

METAR text: ENDU 230250Z AUTO VRB02KT 9999 FEW140/// 03/M01 Q0988 RMK WIND 1100FT 19023KT WIND 2200FT 20024KT
Conditions at: ENDU (BARDUFOSS (CIV/M, NO) observed 0250 UTC 23 March 2019
Temperature: 3.0°C (37°F)
Dewpoint: -1.0°C (30°F) [RH = 75%]
Pressure (altimeter): 29.17 inches Hg (988.0 mb)
Winds: variable direction winds at 2 MPH (2 knots; 1.0 m/s)
Visibility: 6 or more miles (10+ km)
Ceiling: at least 12,000 feet AGL
Clouds: few clouds at 14000 feet AGL
Weather: no significant weather observed at this time

METAR text: ENDU 230220Z AUTO VRB02KT 9999 FEW110/// 05/M01 Q0988 RMK WIND 1100FT 20022KT WIND 2200FT 21023KT
Conditions at: ENDU (BARDUFOSS (CIV/M, NO) observed 0220 UTC 23 March 2019
Temperature: 5.0°C (41°F)
Dewpoint: -1.0°C (30°F) [RH = 65%]
Pressure (altimeter): 29.17 inches Hg (988.0 mb)
Winds: variable direction winds at 2 MPH (2 knots; 1.0 m/s)
Visibility: 6 or more miles (10+ km)
Ceiling: at least 12,000 feet AGL
Clouds: few clouds at 11000 feet AGL
Weather: no significant weather observed at this time

METAR text: ENDU 230150Z AUTO VRB05KT 9999 SCT110/// 04/M00 Q0989 RMK WIND 1100FT 19024KT WIND 2200FT 20022KT
Conditions at: ENDU (BARDUFOSS (CIV/M, NO) observed 0150 UTC 23 March 2019
Temperature: 4.0°C (39°F)
Dewpoint: 0.0°C (32°F) [RH = 75%]
Pressure (altimeter): 29.20 inches Hg (989.0 mb)
Winds: variable direction winds at 6 MPH (5 knots; 2.6 m/s)
Visibility: 6 or more miles (10+ km)
Ceiling: at least 12,000 feet AGL
Clouds: scattered clouds at 11000 feet AGL
Weather: no significant weather observed at this time

METAR text: ENDU 230120Z AUTO 35006KT 320V030 9999 NCD 04/M00 Q0989 RMK WIND 1100FT 19025KT WIND 2200FT 20020KT
Conditions at: ENDU (BARDUFOSS (CIV/M, NO) observed 0120 UTC 23 March 2019
Temperature: 4.0°C (39°F)
Dewpoint: 0.0°C (32°F) [RH = 75%]
Pressure (altimeter): 29.20 inches Hg (989.0 mb)
Winds: from the N (350 degrees) at 7 MPH (6 knots; 3.1 m/s)
Visibility: 6 or more miles (10+ km)
Ceiling: at least 12,000 feet AGL
Clouds: sky clear below 12,000 feet AGL
Weather: no significant weather observed at this time

METAR text: ENDU 230050Z AUTO VRB03KT 9999 FEW035/// SCT044/// BKN140/// 04/M00 Q0990 RMK WIND 1100FT 18024KT WIND 2200FT 18016KT
Conditions at: ENDU (BARDUFOSS (CIV/M, NO) observed 0050 UTC 23 March 2019
Temperature: 4.0°C (39°F)
Dewpoint: 0.0°C (32°F) [RH = 75%]
Pressure (altimeter): 29.23 inches Hg (990.0 mb)
Winds: variable direction winds at 3 MPH (3 knots; 1.5 m/s)
Visibility: 6 or more miles (10+ km)
Ceiling: 14000 feet AGL
Clouds: few clouds at 3500 feet AGL
scattered clouds at 4400 feet AGL
broken clouds at 14000 feet AGL
Weather: no significant weather observed at this time

METAR text: ENDU 230020Z AUTO 07004KT 9999 FEW034/// SCT043/// BKN120/// 04/M00 Q0991 RMK WIND 1100FT 18018KT WIND 2200FT 19017KT
Conditions at: ENDU (BARDUFOSS (CIV/M, NO) observed 0020 UTC 23 March 2019
Temperature: 4.0°C (39°F)
Dewpoint: 0.0°C (32°F) [RH = 75%]
Pressure (altimeter): 29.26 inches Hg (991.0 mb)
Winds: from the ENE (70 degrees) at 5 MPH (4 knots; 2.1 m/s)
Visibility: 6 or more miles (10+ km)
Ceiling: 12000 feet AGL
Clouds: few clouds at 3400 feet AGL
scattered clouds at 4300 feet AGL
broken clouds at 12000 feet AGL
Weather: no significant weather observed at this time

METAR text: ENDU 222350Z AUTO VRB01KT 9999 BKN036/// OVC049/// 02/M00 Q0991 RMK WIND 1100FT 18020KT WIND 2200FT 20024KT
Conditions at: ENDU (BARDUFOSS (CIV/M, NO) observed 2350 UTC 22 March 2019
Temperature: 2.0°C (36°F)
Dewpoint: 0.0°C (32°F) [RH = 87%]
Pressure (altimeter): 29.26 inches Hg (991.0 mb)
Winds: variable direction winds at 1 MPH (1 knots; 0.5 m/s)
Visibility: 6 or more miles (10+ km)
Ceiling: 3600 feet AGL
Clouds: broken clouds at 3600 feet AGL
overcast cloud deck at 4900 feet AGL
Weather: no significant weather observed at this time

METAR text: ENDU 222320Z AUTO VRB02KT 9999 -RA FEW007/// BKN035/// OVC045/// 03/M00 Q0991 RERA RMK WIND 1100FT 18008KT WIND 2200FT 20024KT
Conditions at: ENDU (BARDUFOSS (CIV/M, NO) observed 2320 UTC 22 March 2019
Temperature: 3.0°C (37°F)
Dewpoint: 0.0°C (32°F) [RH = 81%]
Pressure (altimeter): 29.26 inches Hg (991.0 mb)
Winds: variable direction winds at 2 MPH (2 knots; 1.0 m/s)
Visibility: 6 or more miles (10+ km)
Ceiling: 3500 feet AGL
Clouds: few clouds at 700 feet AGL
broken clouds at 3500 feet AGL
overcast cloud deck at 4500 feet AGL
Weather: -RA  (light rain)

METAR text: ENDU 222250Z AUTO 13004KT 070V220 9999 OVC040/// 03/M00 Q0992 RMK WIND 1100FT VRB02KT WIND 2200FT 20027KT
Conditions at: ENDU (BARDUFOSS (CIV/M, NO) observed 2250 UTC 22 March 2019
Temperature: 3.0°C (37°F)
Dewpoint: 0.0°C (32°F) [RH = 81%]
Pressure (altimeter): 29.29 inches Hg (992.0 mb)
Winds: from the SE (130 degrees) at 5 MPH (4 knots; 2.1 m/s)
Visibility: 6 or more miles (10+ km)
Ceiling: 4000 feet AGL
Clouds: overcast cloud deck at 4000 feet AGL
Weather: no significant weather observed at this time

METAR text: ENDU 222220Z AUTO VRB02KT 9999 -DZ OVC041/// 03/M01 Q0992 RMK WIND 1100FT VRB02KT WIND 2200FT 20027KT
Conditions at: ENDU (BARDUFOSS (CIV/M, NO) observed 2220 UTC 22 March 2019
Temperature: 3.0°C (37°F)
Dewpoint: -1.0°C (30°F) [RH = 75%]
Pressure (altimeter): 29.29 inches Hg (992.0 mb)
Winds: variable direction winds at 2 MPH (2 knots; 1.0 m/s)
Visibility: 6 or more miles (10+ km)
Ceiling: 4100 feet AGL
Clouds: overcast cloud deck at 4100 feet AGL
Weather: -DZ  (light drizzle)

METAR text: ENDU 222150Z 06005KT 020V100 9999 -RA FEW015 SCT025 BKN035 03/M00 Q0993 RMK WIND 1100FT VRB05KT WIND 2200FT 19027KT
Conditions at: ENDU (BARDUFOSS (CIV/M, NO) observed 2150 UTC 22 March 2019
Temperature: 3.0°C (37°F)
Dewpoint: 0.0°C (32°F) [RH = 81%]
Pressure (altimeter): 29.32 inches Hg (993.0 mb)
Winds: from the ENE (60 degrees) at 6 MPH (5 knots; 2.6 m/s)
Visibility: 6 or more miles (10+ km)
Ceiling: 3500 feet AGL
Clouds: few clouds at 1500 feet AGL
scattered clouds at 2500 feet AGL
broken clouds at 3500 feet AGL
Weather: -RA  (light rain)

METAR text: ENDU 222050Z 10007KT 9999 -RA FEW012 BKN030 02/M00 Q0994 RMK WIND 1100FT 12005KT WIND 2200FT 17023KT
Conditions at: ENDU (BARDUFOSS (CIV/M, NO) observed 2050 UTC 22 March 2019
Temperature: 2.0°C (36°F)
Dewpoint: 0.0°C (32°F) [RH = 87%]
Pressure (altimeter): 29.35 inches Hg (994.0 mb)
Winds: from the E (100 degrees) at 8 MPH (7 knots; 3.6 m/s)
Visibility: 6 or more miles (10+ km)
Ceiling: 3000 feet AGL
Clouds: few clouds at 1200 feet AGL
broken clouds at 3000 feet AGL
Weather: -RA  (light rain)

METAR text: ENDU 221950Z 14008KT 100V190 9999 -RA FEW018 SCT025 BKN035 03/M01 Q0996 RMK WIND 1100FT 16014KT WIND 2200FT 17025KT
Conditions at: ENDU (BARDUFOSS (CIV/M, NO) observed 1950 UTC 22 March 2019
Temperature: 3.0°C (37°F)
Dewpoint: -1.0°C (30°F) [RH = 75%]
Pressure (altimeter): 29.41 inches Hg (996.0 mb)
Winds: from the SE (140 degrees) at 9 MPH (8 knots; 4.1 m/s)
Visibility: 6 or more miles (10+ km)
Ceiling: 3500 feet AGL
Clouds: few clouds at 1800 feet AGL
scattered clouds at 2500 feet AGL
broken clouds at 3500 feet AGL
Weather: -RA  (light rain)

METAR text: ENDU 221850Z VRB04KT 9999 FEW030 SCT045 BKN060 02/M06 Q0998 RMK WIND 1100FT 18015KT WIND 2200FT 15024KT
Conditions at: ENDU (BARDUFOSS (CIV/M, NO) observed 1850 UTC 22 March 2019
Temperature: 2.0°C (36°F)
Dewpoint: -6.0°C (21°F) [RH = 55%]
Pressure (altimeter): 29.47 inches Hg (998.0 mb)
Winds: variable direction winds at 5 MPH (4 knots; 2.1 m/s)
Visibility: 6 or more miles (10+ km)
Ceiling: 6000 feet AGL
Clouds: few clouds at 3000 feet AGL
scattered clouds at 4500 feet AGL
broken clouds at 6000 feet AGL
Weather: no significant weather observed at this time

METAR text: ENDU 221750Z 09007KT 9999 FEW035 BKN080 02/M08 Q1000 TEMPO 14015G25KT RMK WIND 1100FT 17012KT WIND 2200FT 15023KT
Conditions at: ENDU (BARDUFOSS (CIV/M, NO) observed 1750 UTC 22 March 2019
Temperature: 2.0°C (36°F)
Dewpoint: -8.0°C (18°F) [RH = 47%]
Pressure (altimeter): 29.53 inches Hg (1000.0 mb)
Winds: from the E (90 degrees) at 8 MPH (7 knots; 3.6 m/s)
Visibility: 6 or more miles (10+ km)
Ceiling: 8000 feet AGL
Clouds: few clouds at 3500 feet AGL
broken clouds at 8000 feet AGL
Weather: no significant weather observed at this time

METAR text: ENDU 221720Z 13005KT 050V180 9999 FEW035 BKN080 03/M08 Q1001 TEMPO 19015G25KT RMK WIND 1100FT 17018KT WIND 2200FT 16023KT
Conditions at: ENDU (BARDUFOSS (CIV/M, NO) observed 1720 UTC 22 March 2019
Temperature: 3.0°C (37°F)
Dewpoint: -8.0°C (18°F) [RH = 44%]
Pressure (altimeter): 29.56 inches Hg (1001.0 mb)
Winds: from the SE (130 degrees) at 6 MPH (5 knots; 2.6 m/s)
Visibility: 6 or more miles (10+ km)
Ceiling: 8000 feet AGL
Clouds: few clouds at 3500 feet AGL
broken clouds at 8000 feet AGL
Weather: no significant weather observed at this time

METAR text: ENDU 221650Z VRB05KT 9999 FEW035 SCT080 BKN100 02/M08 Q1002 TEMPO 19015G25KT RMK WIND 1100FT 17019KT WIND 2200FT 16022KT
Conditions at: ENDU (BARDUFOSS (CIV/M, NO) observed 1650 UTC 22 March 2019
Temperature: 2.0°C (36°F)
Dewpoint: -8.0°C (18°F) [RH = 47%]
Pressure (altimeter): 29.59 inches Hg (1002.0 mb)
Winds: variable direction winds at 6 MPH (5 knots; 2.6 m/s)
Visibility: 6 or more miles (10+ km)
Ceiling: 10000 feet AGL
Clouds: few clouds at 3500 feet AGL
scattered clouds at 8000 feet AGL
broken clouds at 10000 feet AGL
Weather: no significant weather observed at this time

METAR text: ENDU 221620Z VRB05KT 9999 FEW035 SCT080 BKN100 02/M08 Q1004 TEMPO 19015G25KT RMK WIND 1100FT 17022KT WIND 2200FT 17023KT
Conditions at: ENDU (BARDUFOSS (CIV/M, NO) observed 1620 UTC 22 March 2019
Temperature: 2.0°C (36°F)
Dewpoint: -8.0°C (18°F) [RH = 47%]
Pressure (altimeter): 29.65 inches Hg (1004.0 mb)
Winds: variable direction winds at 6 MPH (5 knots; 2.6 m/s)
Visibility: 6 or more miles (10+ km)
Ceiling: 10000 feet AGL
Clouds: few clouds at 3500 feet AGL
scattered clouds at 8000 feet AGL
broken clouds at 10000 feet AGL
Weather: no significant weather observed at this time

METAR text: ENDU 221550Z 15004KT 100V210 9999 FEW035 BKN100 03/M08 Q1005 TEMPO 19015G25KT RMK WIND 1100FT 18020KT WIND 2200FT 17018KT
Conditions at: ENDU (BARDUFOSS (CIV/M, NO) observed 1550 UTC 22 March 2019
Temperature: 3.0°C (37°F)
Dewpoint: -8.0°C (18°F) [RH = 44%]
Pressure (altimeter): 29.68 inches Hg (1005.0 mb)
Winds: from the SSE (150 degrees) at 5 MPH (4 knots; 2.1 m/s)
Visibility: 6 or more miles (10+ km)
Ceiling: 10000 feet AGL
Clouds: few clouds at 3500 feet AGL
broken clouds at 10000 feet AGL
Weather: no significant weather observed at this time

METAR text: ENDU 221520Z VRB04KT 9999 FEW035 BKN100 03/M07 Q1006 TEMPO 21015G25KT RMK WIND 1100FT 18024KT WIND 2200FT 18018KT
Conditions at: ENDU (BARDUFOSS (CIV/M, NO) observed 1520 UTC 22 March 2019
Temperature: 3.0°C (37°F)
Dewpoint: -7.0°C (19°F) [RH = 48%]
Pressure (altimeter): 29.70 inches Hg (1006.0 mb)
Winds: variable direction winds at 5 MPH (4 knots; 2.1 m/s)
Visibility: 6 or more miles (10+ km)
Ceiling: 10000 feet AGL
Clouds: few clouds at 3500 feet AGL
broken clouds at 10000 feet AGL
Weather: no significant weather observed at this time

METAR text: ENDU 221450Z VRB02KT 9999 FEW030 SCT050 BKN100 03/M07 Q1008 TEMPO 21015G25KT RMK WIND 1100FT 17021KT WIND 2200FT 18018KT
Conditions at: ENDU (BARDUFOSS (CIV/M, NO) observed 1450 UTC 22 March 2019
Temperature: 3.0°C (37°F)
Dewpoint: -7.0°C (19°F) [RH = 48%]
Pressure (altimeter): 29.76 inches Hg (1008.0 mb)
Winds: variable direction winds at 2 MPH (2 knots; 1.0 m/s)
Visibility: 6 or more miles (10+ km)
Ceiling: 10000 feet AGL
Clouds: few clouds at 3000 feet AGL
scattered clouds at 5000 feet AGL
broken clouds at 10000 feet AGL
Weather: no significant weather observed at this time

METAR text: ENDU 221420Z 18004KT 110V250 9999 FEW030 BKN050 04/M08 Q1009 TEMPO 21015G25KT RMK WIND 1100FT 19016KT WIND 2200FT 19022KT
Conditions at: ENDU (BARDUFOSS (CIV/M, NO) observed 1420 UTC 22 March 2019
Temperature: 4.0°C (39°F)
Dewpoint: -8.0°C (18°F) [RH = 41%]
Pressure (altimeter): 29.79 inches Hg (1009.0 mb)
Winds: from the S (180 degrees) at 5 MPH (4 knots; 2.1 m/s)
Visibility: 6 or more miles (10+ km)
Ceiling: 5000 feet AGL
Clouds: few clouds at 3000 feet AGL
broken clouds at 5000 feet AGL
Weather: no significant weather observed at this time

METAR text: ENDU 221350Z 19005KT 110V230 9999 FEW030 BKN050 04/M07 Q1009 TEMPO 21015G25KT RMK WIND 1100FT 19022KT WIND 2200FT 20023KT
Conditions at: ENDU (BARDUFOSS (CIV/M, NO) observed 1350 UTC 22 March 2019
Temperature: 4.0°C (39°F)
Dewpoint: -7.0°C (19°F) [RH = 44%]
Pressure (altimeter): 29.79 inches Hg (1009.0 mb)
Winds: from the S (190 degrees) at 6 MPH (5 knots; 2.6 m/s)
Visibility: 6 or more miles (10+ km)
Ceiling: 5000 feet AGL
Clouds: few clouds at 3000 feet AGL
broken clouds at 5000 feet AGL
Weather: no significant weather observed at this time

METAR text: ENDU 221320Z 19007KT 140V240 9999 FEW040 BKN050 04/M07 Q1010 TEMPO 21015G25KT RMK WIND 1100FT 19018KT WIND 2200FT 20019KT
Conditions at: ENDU (BARDUFOSS (CIV/M, NO) observed 1320 UTC 22 March 2019
Temperature: 4.0°C (39°F)
Dewpoint: -7.0°C (19°F) [RH = 44%]
Pressure (altimeter): 29.82 inches Hg (1010.0 mb)
Winds: from the S (190 degrees) at 8 MPH (7 knots; 3.6 m/s)
Visibility: 6 or more miles (10+ km)
Ceiling: 5000 feet AGL
Clouds: few clouds at 4000 feet AGL
broken clouds at 5000 feet AGL
Weather: no significant weather observed at this time

METAR text: ENDU 221250Z 20006KT 150V240 9999 FEW030 BKN050 03/M05 Q1011 NOSIG RMK WIND 1100FT 19017KT WIND 2200FT 20020KT
Conditions at: ENDU (BARDUFOSS (CIV/M, NO) observed 1250 UTC 22 March 2019
Temperature: 3.0°C (37°F)
Dewpoint: -5.0°C (23°F) [RH = 56%]
Pressure (altimeter): 29.85 inches Hg (1011.0 mb)
Winds: from the SSW (200 degrees) at 7 MPH (6 knots; 3.1 m/s)
Visibility: 6 or more miles (10+ km)
Ceiling: 5000 feet AGL
Clouds: few clouds at 3000 feet AGL
broken clouds at 5000 feet AGL
Weather: no significant weather observed at this time

METAR text: ENDU 221220Z 21003KT 180V260 9999 VCSH FEW030 SCT045 03/M04 Q1011 NOSIG RMK WIND 1100FT 19015KT WIND 2200FT 20017KT
Conditions at: ENDU (BARDUFOSS (CIV/M, NO) observed 1220 UTC 22 March 2019
Temperature: 3.0°C (37°F)
Dewpoint: -4.0°C (25°F) [RH = 60%]
Pressure (altimeter): 29.85 inches Hg (1011.0 mb)
Winds: from the SSW (210 degrees) at 3 MPH (3 knots; 1.5 m/s)
Visibility: 6 or more miles (10+ km)
Ceiling: at least 12,000 feet AGL
Clouds: few clouds at 3000 feet AGL
scattered clouds at 4500 feet AGL
Weather: VCSH  (showers in vicinity)

METAR text: ENDU 221150Z 21006KT 160V240 9999 FEW030 SCT040 03/M03 Q1012 NOSIG RMK WIND 1100FT 19011KT WIND 2200FT 22017KT
Conditions at: ENDU (BARDUFOSS (CIV/M, NO) observed 1150 UTC 22 March 2019
Temperature: 3.0°C (37°F)
Dewpoint: -3.0°C (27°F) [RH = 65%]
Pressure (altimeter): 29.88 inches Hg (1012.0 mb)
Winds: from the SSW (210 degrees) at 7 MPH (6 knots; 3.1 m/s)
Visibility: 6 or more miles (10+ km)
Ceiling: at least 12,000 feet AGL
Clouds: few clouds at 3000 feet AGL
scattered clouds at 4000 feet AGL
Weather: no significant weather observed at this time

Forecast for: AMD
Text: AMD ENDU 2318/2418 18008KT 9999 -SHSNRA FEW015 SCT030
Forecast period: 1800 to 2200 UTC 23 March 2019
Forecast type: FROM: standard forecast or significant change
Winds: from the S (180 degrees) at 9 MPH (8 knots; 4.1 m/s)
Visibility: 6 or more miles 10+ km)
Ceiling: at least 12,000 feet AGL
Clouds: few clouds at 1500 feet AGL
scattered clouds at 3000 feet AGL
Weather: -SHSN -SHRA  (light snow showers, light rain showers)
Text: TEMPO 2318/2323 20015G25KT SCT020CB BKN030
Forecast period: 1800 to 2300 UTC 23 March 2019
Forecast type: TEMPORARY: The following changes expected for less than half the time period
Winds: from the SSW (200 degrees) at 17 MPH (15 knots; 7.7 m/s)
gusting to 29 MPH (25 knots; 12.9 m/s)
Visibility: missing
Ceiling: 3000 feet AGL
Clouds: scattered clouds at 2000 feet AGL
broken clouds at 3000 feet AGL
Weather: no significant weather forecast for this period
Text: BECMG 2322/2324 28010KT
Forecast period: 2200 UTC 23 March 2019 to 1800 UTC 24 March 2019
Forecast type: BECOMING: Conditions expected to become as follows by 0000 UTC 24 March 2019
Winds: from the W (280 degrees) at 12 MPH (10 knots; 5.1 m/s)
Visibility: 6 or more miles 10+ km)
Ceiling: at least 12,000 feet AGL
Clouds: few clouds at 1500 feet AGL
scattered clouds at 3000 feet AGL
Weather: -SHSN -SHRA  (light snow showers, light rain showers)
Text: TEMPO 2323/2418 29020G35KT 1500 SHSNRA VV012
Forecast period: 2300 UTC 23 March 2019 to 1800 UTC 24 March 2019
Forecast type: TEMPORARY: The following changes expected for less than half the time period
Winds: from the WNW (290 degrees) at 23 MPH (20 knots; 10.3 m/s)
gusting to 40 MPH (35 knots; 18.0 m/s)
Visibility: 0.93 miles (1.50 km)
Ceiling: indefinite ceiling with vertical visibility of 1200 feet AGL
Clouds: obscured sky
Weather: SHSN SHRA  (snow showers, rain showers)